Time;durP1;ratioP1;P1;durP2;ratioP2;P2;SDS_P1;SDS_P2;PMS_P1;PMS_P2;Temp;Humidity;BMP_temperature;BMP_pressure;BME280_temperature;BME280_humidity;BME280_pressure;Samples;Min_cycle;Max_cycle;Signal;HPM_P1;HPM_P2
2023/09/07 00:00:13;;;;;;;10.27;5.13;;;13.70;99.90;;;;;;5030482;28;20661;-66
2023/09/07 00:02:39;;;;;;;12.70;4.63;;;13.70;99.90;;;;;;5030696;28;20180;-66
2023/09/07 00:05:06;;;;;;;10.77;5.20;;;13.70;99.90;;;;;;5030519;28;20216;-66
2023/09/07 00:07:32;;;;;;;12.63;4.70;;;13.70;99.90;;;;;;5030118;28;20263;-66
2023/09/07 00:09:57;;;;;;;9.27;4.90;;;13.60;99.90;;;;;;5030880;28;20275;-66
2023/09/07 00:12:23;;;;;;;8.83;4.70;;;13.60;99.90;;;;;;5030509;28;20186;-66
2023/09/07 00:14:48;;;;;;;7.07;4.50;;;13.60;99.90;;;;;;5030485;28;20574;-66
2023/09/07 00:17:14;;;;;;;7.13;4.30;;;13.60;99.90;;;;;;5029811;28;20598;-66
2023/09/07 00:19:39;;;;;;;9.30;4.60;;;13.60;99.90;;;;;;5030627;28;20665;-66
2023/09/07 00:22:05;;;;;;;7.67;4.43;;;13.50;99.90;;;;;;5033224;28;20175;-66
2023/09/07 00:24:34;;;;;;;7.40;4.17;;;13.50;99.90;;;;;;5034413;28;20204;-66
2023/09/07 00:26:59;;;;;;;7.77;4.30;;;13.50;99.90;;;;;;5033952;28;20226;-66
2023/09/07 00:29:25;;;;;;;9.80;4.57;;;13.50;99.90;;;;;;5034549;28;20184;-66
2023/09/07 00:31:50;;;;;;;9.63;4.70;;;13.40;99.90;;;;;;5034157;28;20184;-66
2023/09/07 00:34:16;;;;;;;13.03;4.50;;;13.50;99.90;;;;;;5034274;28;20199;-66
2023/09/07 00:36:42;;;;;;;7.70;4.90;;;13.40;99.90;;;;;;5034170;28;20188;-66
2023/09/07 00:39:08;;;;;;;8.30;4.67;;;13.30;99.90;;;;;;5033909;28;20206;-66
2023/09/07 00:41:33;;;;;;;7.73;4.43;;;13.20;99.90;;;;;;5033975;28;20708;-66
2023/09/07 00:43:59;;;;;;;10.73;4.63;;;13.30;99.90;;;;;;5034136;28;20233;-66
2023/09/07 00:46:25;;;;;;;9.43;4.50;;;13.30;99.90;;;;;;5034050;28;20195;-66
2023/09/07 00:48:51;;;;;;;8.13;4.43;;;13.30;99.90;;;;;;5033475;28;20187;-66
2023/09/07 00:51:17;;;;;;;10.13;4.40;;;13.20;99.90;;;;;;5033955;28;20188;-66
2023/09/07 00:53:43;;;;;;;6.97;4.30;;;13.20;99.90;;;;;;5034093;28;20176;-66
2023/09/07 00:56:09;;;;;;;13.23;4.77;;;13.10;99.90;;;;;;5033769;28;20235;-66
2023/09/07 00:58:36;;;;;;;10.80;4.77;;;13.00;99.90;;;;;;5033207;28;20212;-66
2023/09/07 01:01:02;;;;;;;5.73;4.03;;;13.00;99.90;;;;;;5033811;28;20179;-66
2023/09/07 01:03:28;;;;;;;7.23;4.60;;;13.00;99.90;;;;;;5033913;28;20267;-67
2023/09/07 01:06:03;;;;;;;7.67;4.67;;;13.00;99.90;;;;;;5033450;28;20275;-66
2023/09/07 01:08:41;;;;;;;8.20;4.57;;;13.00;99.90;;;;;;5031894;28;20168;-66
2023/09/07 01:11:16;;;;;;;8.70;4.43;;;13.00;99.90;;;;;;5033516;28;20160;-66
2023/09/07 01:13:42;;;;;;;6.30;4.00;;;12.90;99.90;;;;;;5033621;28;20171;-66
2023/09/07 01:16:09;;;;;;;9.90;4.63;;;12.90;99.90;;;;;;5033406;28;20548;-66
2023/09/07 01:18:37;;;;;;;7.30;4.43;;;12.90;99.90;;;;;;5032859;28;20257;-66
2023/09/07 01:21:10;;;;;;;10.80;4.60;;;12.90;99.90;;;;;;5033292;28;20171;-66
2023/09/07 01:23:37;;;;;;;9.30;4.00;;;12.80;99.90;;;;;;5033468;28;20255;-66
2023/09/07 01:26:04;;;;;;;10.87;5.00;;;12.80;99.90;;;;;;5033129;28;20230;-66
2023/09/07 01:28:29;;;;;;;7.53;4.17;;;12.80;99.90;;;;;;5032882;28;20180;-66
2023/09/07 01:30:56;;;;;;;15.20;4.70;;;12.70;99.90;;;;;;5032823;28;20199;-66
2023/09/07 01:33:21;;;;;;;10.23;4.67;;;12.70;99.90;;;;;;5033232;28;20208;-66
2023/09/07 01:35:47;;;;;;;12.67;4.10;;;12.60;99.90;;;;;;5033088;28;20235;-66
2023/09/07 01:38:12;;;;;;;10.73;4.60;;;12.60;99.90;;;;;;5032473;28;20195;-66
2023/09/07 01:40:38;;;;;;;11.67;4.90;;;12.50;99.90;;;;;;5032997;28;20175;-66
2023/09/07 01:43:03;;;;;;;9.13;4.50;;;12.50;99.90;;;;;;5033073;28;20183;-66
2023/09/07 01:45:29;;;;;;;7.97;4.20;;;12.50;99.90;;;;;;5032927;28;20200;-66
2023/09/07 01:47:54;;;;;;;7.17;4.27;;;12.50;99.90;;;;;;5032376;28;20255;-66
2023/09/07 01:50:20;;;;;;;7.03;4.60;;;12.50;99.90;;;;;;5033015;28;20669;-66
2023/09/07 01:52:48;;;;;;;8.37;4.20;;;12.50;99.90;;;;;;5032798;28;20242;-66
2023/09/07 01:55:14;;;;;;;6.70;4.07;;;12.40;99.90;;;;;;5032632;28;20203;-66
2023/09/07 01:57:40;;;;;;;10.47;4.33;;;12.30;99.90;;;;;;5032398;28;20198;-66
2023/09/07 02:00:06;;;;;;;8.40;4.00;;;12.40;99.90;;;;;;5032618;28;20247;-66
2023/09/07 02:02:31;;;;;;;5.97;3.93;;;12.40;99.90;;;;;;5032720;28;20234;-66
2023/09/07 02:04:57;;;;;;;7.63;4.20;;;12.40;99.90;;;;;;5032551;28;20199;-66
2023/09/07 02:07:22;;;;;;;7.57;4.87;;;12.30;99.90;;;;;;5032038;28;20245;-66
2023/09/07 02:09:48;;;;;;;9.63;4.03;;;12.40;99.90;;;;;;5032474;28;20670;-66
2023/09/07 02:12:14;;;;;;;10.33;4.63;;;12.30;99.90;;;;;;5032782;28;20866;-66
2023/09/07 02:14:39;;;;;;;7.80;3.93;;;12.40;99.90;;;;;;5032308;28;20200;-66
2023/09/07 02:17:05;;;;;;;9.23;4.63;;;12.30;99.90;;;;;;5031962;28;20172;-66
2023/09/07 02:19:30;;;;;;;8.63;4.33;;;12.30;99.90;;;;;;5032029;28;20677;-66
2023/09/07 02:21:56;;;;;;;9.27;4.57;;;12.30;99.90;;;;;;5032252;28;20677;-66
2023/09/07 02:24:22;;;;;;;8.23;4.77;;;12.20;99.90;;;;;;5030887;28;20781;-66
2023/09/07 02:26:47;;;;;;;9.47;4.70;;;12.10;99.90;;;;;;5032047;28;20179;-66
2023/09/07 02:29:13;;;;;;;9.10;4.50;;;12.10;99.90;;;;;;5032064;28;20184;-66
2023/09/07 02:31:40;;;;;;;8.13;4.27;;;12.10;99.90;;;;;;5032042;28;20545;-66
2023/09/07 02:34:05;;;;;;;9.57;4.27;;;12.00;99.90;;;;;;5032290;28;20192;-66
2023/09/07 02:36:31;;;;;;;8.37;4.23;;;12.10;99.90;;;;;;5031901;28;20187;-66
2023/09/07 02:38:56;;;;;;;6.63;4.30;;;12.10;99.90;;;;;;5031359;28;20272;-66
2023/09/07 02:41:22;;;;;;;7.40;4.57;;;12.10;99.90;;;;;;5032056;28;20179;-66
2023/09/07 02:43:48;;;;;;;9.20;4.70;;;12.00;99.90;;;;;;5031319;28;20179;-66
2023/09/07 02:46:13;;;;;;;6.17;4.50;;;12.00;99.90;;;;;;5031831;28;20196;-66
2023/09/07 02:48:39;;;;;;;11.80;4.33;;;11.90;99.90;;;;;;5031163;28;20222;-66
2023/09/07 02:51:05;;;;;;;7.60;4.10;;;11.90;99.90;;;;;;5031701;28;20210;-67
2023/09/07 02:53:30;;;;;;;8.20;4.43;;;11.90;99.90;;;;;;5030469;28;20180;-66
2023/09/07 02:55:56;;;;;;;7.13;4.33;;;11.80;99.90;;;;;;5031655;28;20195;-66
2023/09/07 02:58:23;;;;;;;7.53;4.57;;;11.80;99.90;;;;;;5030888;28;20195;-66
2023/09/07 03:00:48;;;;;;;10.53;4.47;;;11.80;99.90;;;;;;5031591;28;20183;-66
2023/09/07 03:03:14;;;;;;;13.33;4.67;;;11.80;99.90;;;;;;5031560;28;20550;-66
2023/09/07 03:05:41;;;;;;;8.37;4.40;;;11.70;99.90;;;;;;5031461;28;20225;-66
2023/09/07 03:08:07;;;;;;;7.67;4.60;;;11.70;99.90;;;;;;5030683;28;20704;-66
2023/09/07 03:10:34;;;;;;;6.70;4.47;;;11.70;99.90;;;;;;5031427;28;20246;-66
2023/09/07 03:13:00;;;;;;;10.97;4.57;;;11.70;99.90;;;;;;5031413;28;20263;-66
2023/09/07 03:15:26;;;;;;;8.33;4.37;;;11.70;99.90;;;;;;5031314;28;20634;-66
2023/09/07 03:17:52;;;;;;;8.93;4.50;;;11.60;99.90;;;;;;5030823;28;20672;-66
2023/09/07 03:20:18;;;;;;;6.27;4.30;;;11.60;99.90;;;;;;5031383;28;20211;-66
2023/09/07 03:22:44;;;;;;;10.40;4.40;;;11.60;99.90;;;;;;5030988;28;20248;-66
2023/09/07 03:25:11;;;;;;;8.60;4.60;;;11.60;99.90;;;;;;5031066;28;20673;-66
2023/09/07 03:27:37;;;;;;;10.40;4.07;;;11.50;99.90;;;;;;5030398;28;20217;-66
2023/09/07 03:30:05;;;;;;;8.30;4.20;;;11.50;99.90;;;;;;5031051;28;20557;-66
2023/09/07 03:32:32;;;;;;;10.33;5.13;;;11.40;99.90;;;;;;5031111;28;20176;-66
2023/09/07 03:35:02;;;;;;;11.83;5.40;;;11.50;99.90;;;;;;5031236;28;20598;-66
2023/09/07 03:37:28;;;;;;;10.13;5.10;;;11.40;99.90;;;;;;5030321;28;20160;-66
2023/09/07 03:39:55;;;;;;;10.80;5.30;;;11.50;99.90;;;;;;5030793;28;20200;-66
2023/09/07 03:42:20;;;;;;;11.70;4.67;;;11.50;99.90;;;;;;5030979;28;20655;-66
2023/09/07 03:44:46;;;;;;;11.63;5.07;;;11.50;99.90;;;;;;5030712;28;20334;-66
2023/09/07 03:47:13;;;;;;;9.30;4.87;;;11.50;99.90;;;;;;5030234;28;20183;-66
2023/09/07 03:49:39;;;;;;;9.17;4.70;;;11.50;99.90;;;;;;5030816;28;20184;-66
2023/09/07 03:52:04;;;;;;;7.87;4.40;;;11.40;99.90;;;;;;5030621;28;20234;-66
2023/09/07 03:54:31;;;;;;;8.57;4.13;;;11.40;99.90;;;;;;5030575;28;20207;-66
2023/09/07 03:56:57;;;;;;;10.77;4.47;;;11.40;99.90;;;;;;5030358;28;20188;-66
2023/09/07 03:59:23;;;;;;;6.57;4.13;;;11.40;99.90;;;;;;5030366;28;20573;-66
2023/09/07 04:01:49;;;;;;;7.80;4.60;;;11.30;99.90;;;;;;5029302;28;20180;-66
2023/09/07 04:04:15;;;;;;;7.53;4.27;;;11.40;99.90;;;;;;5030553;28;20199;-66
2023/09/07 04:06:40;;;;;;;9.07;4.40;;;11.30;99.90;;;;;;5030468;28;20179;-66
2023/09/07 04:09:06;;;;;;;8.00;4.30;;;11.30;99.90;;;;;;5030039;28;20176;-66
2023/09/07 04:11:32;;;;;;;9.50;4.13;;;11.20;99.90;;;;;;5030683;28;20270;-66
2023/09/07 04:13:57;;;;;;;11.67;4.30;;;11.20;99.90;;;;;;5030863;28;20180;-66
2023/09/07 04:16:23;;;;;;;12.27;4.67;;;11.20;99.90;;;;;;5030563;28;20533;-66
2023/09/07 04:18:48;;;;;;;9.33;4.23;;;11.20;99.90;;;;;;5029821;28;20225;-66
2023/09/07 04:21:14;;;;;;;12.37;4.30;;;11.20;99.90;;;;;;5030418;28;20545;-66
2023/09/07 04:23:40;;;;;;;11.23;4.90;;;11.20;99.90;;;;;;5030497;28;20175;-66
2023/09/07 04:26:10;;;;;;;6.47;4.27;;;11.10;99.90;;;;;;5030465;28;20192;-66
2023/09/07 04:28:37;;;;;;;6.93;4.57;;;11.10;99.90;;;;;;5029924;28;20172;-66
2023/09/07 04:31:04;;;;;;;11.30;4.80;;;11.10;99.90;;;;;;5030477;28;20175;-66
2023/09/07 04:33:31;;;;;;;7.20;4.43;;;11.10;99.90;;;;;;5030128;28;20603;-66
2023/09/07 04:35:56;;;;;;;9.07;4.50;;;11.00;99.90;;;;;;5030324;28;20204;-66
2023/09/07 04:38:22;;;;;;;13.47;4.70;;;11.00;99.90;;;;;;5029530;28;20698;-66
2023/09/07 04:40:48;;;;;;;6.63;4.50;;;11.00;99.90;;;;;;5030394;28;20176;-66
2023/09/07 04:43:13;;;;;;;9.33;5.00;;;10.90;99.90;;;;;;5030418;28;20180;-66
2023/09/07 04:45:46;;;;;;;9.57;5.00;;;11.00;99.90;;;;;;5030227;28;20195;-66
2023/09/07 04:48:12;;;;;;;9.30;5.13;;;10.90;99.90;;;;;;5029623;28;20688;-66
2023/09/07 04:50:37;;;;;;;9.80;4.83;;;10.90;99.90;;;;;;5023539;28;20181;-66
2023/09/07 04:53:03;;;;;;;14.33;5.17;;;10.80;99.90;;;;;;5010438;28;20169;-66
2023/09/07 04:55:29;;;;;;;9.63;4.50;;;10.80;99.90;;;;;;5010366;28;20196;-66
2023/09/07 04:57:54;;;;;;;9.87;4.63;;;10.80;99.90;;;;;;5009292;28;20169;-66
2023/09/07 05:00:20;;;;;;;10.30;4.13;;;10.90;99.90;;;;;;5009001;28;20197;-66
2023/09/07 05:02:47;;;;;;;11.00;5.13;;;10.90;99.90;;;;;;5009405;28;20207;-66
2023/09/07 05:05:12;;;;;;;12.27;5.03;;;10.90;99.90;;;;;;5009787;28;20200;-66
2023/09/07 05:07:38;;;;;;;16.40;5.10;;;10.90;99.90;;;;;;5012302;28;20231;-66
2023/09/07 05:10:04;;;;;;;11.57;4.93;;;10.90;99.90;;;;;;5013176;28;20238;-66
2023/09/07 05:12:29;;;;;;;15.40;4.70;;;10.90;99.90;;;;;;5013222;28;20172;-66
2023/09/07 05:14:55;;;;;;;19.40;4.83;;;10.90;99.90;;;;;;5013256;28;20207;-66
2023/09/07 05:17:20;;;;;;;9.47;4.60;;;10.90;99.90;;;;;;5011571;28;20195;-67
2023/09/07 05:19:46;;;;;;;14.97;4.60;;;10.90;99.90;;;;;;5013322;28;20689;-66
2023/09/07 05:22:11;;;;;;;10.20;4.77;;;11.00;99.90;;;;;;5013081;28;20207;-66
2023/09/07 05:24:40;;;;;;;12.53;5.00;;;11.00;99.90;;;;;;5012829;28;20203;-66
2023/09/07 05:27:06;;;;;;;8.10;4.43;;;11.00;99.90;;;;;;5012575;28;20288;-66
2023/09/07 05:29:31;;;;;;;12.83;4.67;;;11.00;99.90;;;;;;5011568;28;20409;-66
2023/09/07 05:31:57;;;;;;;13.27;5.30;;;11.10;99.90;;;;;;5012863;28;20540;-66
2023/09/07 05:34:22;;;;;;;12.30;4.60;;;11.10;99.90;;;;;;5012568;28;20204;-66
2023/09/07 05:36:48;;;;;;;14.10;5.23;;;11.10;99.90;;;;;;5012147;28;20243;-66
2023/09/07 05:39:14;;;;;;;9.53;4.97;;;11.20;99.90;;;;;;5012353;28;20200;-66
2023/09/07 05:41:39;;;;;;;9.97;4.83;;;11.20;99.90;;;;;;5012686;28;20587;-66
2023/09/07 05:44:05;;;;;;;11.97;4.97;;;11.20;99.90;;;;;;5012560;28;20176;-66
2023/09/07 05:46:30;;;;;;;10.83;4.97;;;11.20;99.90;;;;;;5012538;28;20209;-66
2023/09/07 05:48:56;;;;;;;14.93;5.80;;;11.30;99.90;;;;;;5012007;28;20199;-66
2023/09/07 05:51:21;;;;;;;13.93;5.13;;;11.40;99.90;;;;;;5012193;28;20291;-66
2023/09/07 05:53:47;;;;;;;11.53;4.70;;;11.50;99.90;;;;;;5012334;28;20234;-66
2023/09/07 05:56:13;;;;;;;14.60;5.10;;;11.60;99.90;;;;;;5012172;28;20283;-66
2023/09/07 05:58:38;;;;;;;8.13;4.63;;;11.70;99.90;;;;;;5011454;28;20306;-66
2023/09/07 06:01:05;;;;;;;21.27;5.13;;;11.80;99.90;;;;;;5012181;28;20201;-66
2023/09/07 06:03:32;;;;;;;15.57;5.17;;;12.10;99.90;;;;;;5012198;28;20674;-66
2023/09/07 06:05:57;;;;;;;18.90;5.70;;;12.30;99.90;;;;;;5012111;28;20196;-66
2023/09/07 06:08:23;;;;;;;12.50;5.23;;;12.40;99.90;;;;;;5011445;28;20187;-67
2023/09/07 06:10:49;;;;;;;15.67;5.20;;;12.50;99.90;;;;;;5018148;28;20199;-67
2023/09/07 06:13:15;;;;;;;14.33;5.20;;;12.60;99.90;;;;;;5032243;28;20661;-66
2023/09/07 06:15:40;;;;;;;13.07;5.17;;;12.80;99.90;;;;;;5031557;28;20192;-67
2023/09/07 06:18:06;;;;;;;15.73;5.20;;;13.00;99.90;;;;;;5031272;28;20191;-66
2023/09/07 06:20:31;;;;;;;12.90;5.20;;;13.00;99.90;;;;;;5031417;28;20666;-67
2023/09/07 06:22:57;;;;;;;12.17;5.07;;;13.10;99.90;;;;;;5031473;28;20182;-67
2023/09/07 06:25:22;;;;;;;12.93;5.70;;;13.20;99.90;;;;;;5031352;28;20274;-66
2023/09/07 06:27:48;;;;;;;14.57;5.13;;;13.30;99.90;;;;;;5030899;28;20203;-67
2023/09/07 06:30:14;;;;;;;12.83;5.07;;;13.40;99.90;;;;;;5031137;28;20187;-67
2023/09/07 06:32:40;;;;;;;18.93;5.23;;;13.60;99.90;;;;;;5031460;28;20188;-67
2023/09/07 06:35:06;;;;;;;14.23;5.57;;;13.80;99.90;;;;;;5026465;28;20308;-67
2023/09/07 06:37:31;;;;;;;10.93;5.73;;;14.00;99.90;;;;;;5023080;28;20208;-67
2023/09/07 06:39:57;;;;;;;18.70;5.33;;;14.30;99.90;;;;;;5027330;28;20337;-66
2023/09/07 06:42:22;;;;;;;15.83;5.50;;;14.60;99.90;;;;;;5028339;28;20231;-66
2023/09/07 06:44:48;;;;;;;17.47;6.37;;;15.10;99.90;;;;;;5030620;28;20289;-67
2023/09/07 06:47:14;;;;;;;10.63;5.23;;;15.50;99.90;;;;;;5030463;28;20180;-67
2023/09/07 06:49:40;;;;;;;10.27;4.97;;;15.90;99.90;;;;;;5029457;28;20614;-67
2023/09/07 06:52:05;;;;;;;15.90;5.73;;;16.30;99.90;;;;;;5030676;28;20263;-67
2023/09/07 06:54:31;;;;;;;17.97;5.40;;;16.70;99.90;;;;;;5030790;28;20326;-67
2023/09/07 06:56:56;;;;;;;15.97;5.43;;;17.10;99.90;;;;;;5030246;28;20184;-68
2023/09/07 06:59:22;;;;;;;29.10;7.70;;;17.30;99.90;;;;;;5029698;28;20520;-67
2023/09/07 07:01:47;;;;;;;15.40;5.00;;;17.60;99.90;;;;;;5030501;28;20219;-67
2023/09/07 07:04:13;;;;;;;13.13;4.77;;;17.80;99.90;;;;;;5030781;28;20706;-67
2023/09/07 07:06:39;;;;;;;12.37;4.90;;;18.00;99.90;;;;;;5030372;28;20605;-67
2023/09/07 07:09:05;;;;;;;10.90;5.03;;;18.10;99.90;;;;;;5030273;28;20242;-71
2023/09/07 07:11:30;;;;;;;11.67;4.60;;;18.20;99.90;;;;;;5030285;28;20188;-66
2023/09/07 07:13:56;;;;;;;14.53;5.03;;;18.70;99.90;;;;;;5030412;28;20186;-66
2023/09/07 07:16:21;;;;;;;8.90;4.43;;;19.20;99.90;;;;;;5030438;28;20362;-66
2023/09/07 07:18:47;;;;;;;11.90;4.80;;;19.60;99.90;;;;;;5029731;28;20235;-66
2023/09/07 07:21:13;;;;;;;7.07;4.00;;;19.90;99.90;;;;;;5029975;28;20176;-66
2023/09/07 07:23:38;;;;;;;11.43;4.73;;;20.20;99.90;;;;;;5030291;28;20178;-66
2023/09/07 07:26:04;;;;;;;7.00;4.10;;;20.60;99.90;;;;;;5030146;28;20254;-66
2023/09/07 07:28:29;;;;;;;13.53;4.77;;;21.00;99.90;;;;;;5027665;28;20175;-66
2023/09/07 07:30:55;;;;;;;13.87;4.13;;;21.30;99.90;;;;;;5028957;28;20182;-66
2023/09/07 07:33:21;;;;;;;10.47;4.37;;;21.30;99.90;;;;;;5030185;28;20176;-66
2023/09/07 07:35:47;;;;;;;12.40;4.40;;;21.60;99.90;;;;;;5028880;28;20227;-66
2023/09/07 07:38:14;;;;;;;11.13;4.57;;;21.90;99.90;;;;;;5029578;28;20180;-66
2023/09/07 07:40:40;;;;;;;14.33;4.33;;;21.90;99.90;;;;;;5029735;28;20224;-66
2023/09/07 07:43:06;;;;;;;13.87;4.17;;;22.40;99.90;;;;;;5030120;28;20177;-67
2023/09/07 07:45:36;;;;;;;12.83;4.50;;;22.90;99.90;;;;;;5029824;28;20202;-67
2023/09/07 07:48:02;;;;;;;16.30;4.27;;;23.50;99.90;;;;;;5029304;28;20174;-67
2023/09/07 07:50:27;;;;;;;6.40;3.70;;;23.80;99.90;;;;;;5029784;28;20207;-67
2023/09/07 07:52:53;;;;;;;11.70;4.03;;;24.30;99.90;;;;;;5029791;28;20564;-66
2023/09/07 07:55:18;;;;;;;10.00;4.33;;;24.90;99.90;;;;;;5029649;28;20195;-67
2023/09/07 07:57:44;;;;;;;10.67;4.43;;;25.50;99.90;;;;;;5028971;28;20222;-67
2023/09/07 08:00:10;;;;;;;9.77;3.90;;;25.90;99.90;;;;;;5030042;28;20184;-67
2023/09/07 08:02:35;;;;;;;8.97;4.33;;;26.20;99.90;;;;;;5029896;28;20192;-67
2023/09/07 08:05:01;;;;;;;8.27;3.83;;;26.70;99.90;;;;;;5029977;28;20211;-67
2023/09/07 08:07:27;;;;;;;8.80;4.00;;;27.20;99.90;;;;;;5029268;28;20263;-67
2023/09/07 08:09:53;;;;;;;7.53;3.60;;;27.60;99.90;;;;;;5029625;28;20290;-67
2023/09/07 08:12:18;;;;;;;10.40;3.93;;;28.20;99.90;;;;;;5029701;28;20478;-67
2023/09/07 08:14:44;;;;;;;9.80;4.30;;;28.70;99.90;;;;;;5029661;28;20187;-67
2023/09/07 08:17:09;;;;;;;10.33;4.20;;;29.00;99.90;;;;;;5029097;28;20546;-67
2023/09/07 08:19:35;;;;;;;10.10;4.10;;;29.50;99.90;;;;;;5029391;28;20306;-68
2023/09/07 08:22:03;;;;;;;13.30;4.23;;;30.10;99.90;;;;;;5029748;28;20182;-67
2023/09/07 08:24:29;;;;;;;7.03;3.50;;;30.90;99.90;;;;;;5029822;28;20195;-68
2023/09/07 08:26:56;;;;;;;11.37;4.17;;;31.30;99.90;;;;;;5028935;28;20246;-69
2023/09/07 08:29:24;;;;;;;8.17;3.90;;;32.10;99.90;;;;;;5029417;28;20204;-67
2023/09/07 08:31:50;;;;;;;6.90;3.80;;;32.40;99.90;;;;;;5029520;28;20336;-68
2023/09/07 08:34:16;;;;;;;6.40;3.08;;;32.60;99.90;;;;;;5029676;28;20313;-67
2023/09/07 08:36:42;;;;;;;7.30;3.42;;;32.40;99.90;;;;;;5029458;28;20690;-67
2023/09/07 08:39:10;;;;;;;11.98;3.58;;;32.70;99.90;;;;;;5028448;28;20184;-67
2023/09/07 08:41:43;;;;;;;11.27;4.00;;;32.90;99.90;;;;;;5030691;28;20176;-68
2023/09/07 08:44:10;;;;;;;8.93;3.88;;;33.20;99.90;;;;;;5033393;28;20156;-68
2023/09/07 08:46:37;;;;;;;12.43;3.78;;;33.60;99.90;;;;;;5033082;28;20271;-67
2023/09/07 08:49:04;;;;;;;8.05;3.42;;;33.70;99.90;;;;;;5032511;28;20214;-67
2023/09/07 08:51:31;;;;;;;9.40;4.05;;;33.10;99.90;;;;;;5032989;28;20184;-67
2023/09/07 08:54:00;;;;;;;11.15;3.80;;;33.70;99.90;;;;;;5032996;28;20177;-68
2023/09/07 08:56:26;;;;;;;7.45;3.90;;;34.40;99.90;;;;;;5032829;28;20182;-68
2023/09/07 08:58:52;;;;;;;7.32;3.47;;;34.60;99.90;;;;;;5032558;28;20682;-67
2023/09/07 09:01:18;;;;;;;7.13;3.20;;;34.90;99.90;;;;;;5033087;28;20182;-68
2023/09/07 09:03:45;;;;;;;10.05;3.53;;;34.50;99.90;;;;;;5032072;28;20710;-68
2023/09/07 09:06:11;;;;;;;7.32;3.50;;;34.90;99.90;;;;;;5032843;28;20211;-68
2023/09/07 09:08:48;;;;;;;11.73;3.50;;;35.00;99.90;;;;;;5031932;28;20186;-66
2023/09/07 09:11:14;;;;;;;5.22;3.38;;;35.40;99.90;;;;;;5032789;28;20205;-68
2023/09/07 09:13:41;;;;;;;10.95;3.65;;;35.20;99.90;;;;;;5032706;28;20697;-68
2023/09/07 09:16:06;;;;;;;8.25;3.42;;;34.80;99.90;;;;;;5032735;28;20195;-68
2023/09/07 09:18:32;;;;;;;7.90;3.50;;;34.40;99.90;;;;;;5023856;28;20192;-67
2023/09/07 09:21:01;;;;;;;10.77;3.10;;;34.50;99.90;;;;;;5031907;28;20215;-67
2023/09/07 09:23:34;;;;;;;5.57;3.10;;;34.40;99.90;;;;;;5030564;28;20192;-67
2023/09/07 09:26:01;;;;;;;7.60;3.38;;;34.60;99.90;;;;;;5030357;28;20664;-67
2023/09/07 09:28:27;;;;;;;5.82;3.10;;;33.90;99.90;;;;;;5030315;28;20261;-67
2023/09/07 09:30:54;;;;;;;6.53;3.05;;;33.50;99.90;;;;;;5031997;28;20685;-67
2023/09/07 09:33:21;;;;;;;8.13;3.03;;;33.30;99.90;;;;;;5032570;28;20532;-67
2023/09/07 09:35:47;;;;;;;11.82;3.40;;;33.30;99.90;;;;;;5032230;28;20214;-69
2023/09/07 09:38:13;;;;;;;13.18;3.25;;;33.40;99.90;;;;;;5031572;28;20192;-70
2023/09/07 09:40:39;;;;;;;5.43;3.28;;;34.20;99.90;;;;;;5031905;28;20182;-68
2023/09/07 09:43:06;;;;;;;7.53;3.03;;;34.80;99.90;;;;;;5032645;28;20182;-68
2023/09/07 09:45:33;;;;;;;5.43;2.90;;;34.90;99.90;;;;;;5031795;28;20206;-67
2023/09/07 09:48:01;;;;;;;7.20;3.15;;;35.10;99.90;;;;;;5030499;28;20185;-68
2023/09/07 09:50:28;;;;;;;6.28;3.15;;;35.00;99.90;;;;;;5030662;28;20210;-68
2023/09/07 09:52:53;;;;;;;5.05;3.20;;;34.50;99.90;;;;;;5030535;28;20585;-68
2023/09/07 09:55:19;;;;;;;4.63;2.90;;;34.60;99.80;;;;;;5031253;28;20744;-68
2023/09/07 09:57:45;;;;;;;5.40;2.80;;;34.50;99.90;;;;;;5031141;28;20231;-67
2023/09/07 10:02:48;;;;;;;5.70;3.28;;;34.40;99.90;;;;;;5031251;28;20233;-67
2023/09/07 10:05:14;;;;;;;6.78;3.00;;;34.60;99.90;;;;;;5030908;28;20667;-68
2023/09/07 10:07:44;;;;;;;7.68;3.13;;;34.40;99.80;;;;;;5031171;28;20463;-67
2023/09/07 10:10:13;;;;;;;4.05;2.60;;;34.60;99.40;;;;;;5031213;28;20210;-67
2023/09/07 10:12:42;;;;;;;7.60;3.30;;;34.60;99.00;;;;;;5031551;28;20199;-67
2023/09/07 10:15:24;;;;;;;5.53;2.92;;;34.40;98.80;;;;;;5031581;28;20267;-67
2023/09/07 10:17:50;;;;;;;7.25;3.15;;;34.50;99.10;;;;;;5030364;28;20915;-67
2023/09/07 10:20:17;;;;;;;6.82;3.20;;;34.70;98.80;;;;;;5031216;28;20196;-67
2023/09/07 10:22:43;;;;;;;5.82;2.97;;;34.60;98.70;;;;;;5029903;28;20202;-66
2023/09/07 10:25:22;;;;;;;6.97;3.22;;;35.10;98.80;;;;;;5029449;28;20242;-68
2023/09/07 10:27:48;;;;;;;9.85;4.13;;;35.40;98.40;;;;;;5030893;28;20205;-66
2023/09/07 10:30:22;;;;;;;8.60;4.72;;;35.10;98.30;;;;;;5030974;28;20234;-68
2023/09/07 10:32:48;;;;;;;5.25;3.15;;;34.60;98.60;;;;;;5031946;28;20262;-67
2023/09/07 10:35:21;;;;;;;4.78;3.13;;;34.60;98.90;;;;;;5030803;28;20256;-66
2023/09/07 10:37:47;;;;;;;6.18;3.08;;;34.60;98.70;;;;;;5028647;28;20274;-66
2023/09/07 10:40:18;;;;;;;5.18;2.72;;;34.10;98.30;;;;;;5030658;28;20710;-66
2023/09/07 10:42:44;;;;;;;6.57;3.15;;;34.20;98.90;;;;;;5031123;28;20194;-66
2023/09/07 10:45:16;;;;;;;7.60;3.03;;;34.00;98.70;;;;;;5030900;28;20229;-67
2023/09/07 10:47:48;;;;;;;6.13;3.08;;;33.70;98.10;;;;;;5030587;28;20162;-66
2023/09/07 10:50:14;;;;;;;4.22;2.72;;;34.00;99.20;;;;;;5030697;28;20199;-67
2023/09/07 10:52:41;;;;;;;8.68;2.97;;;34.60;99.80;;;;;;5030613;28;20255;-67
2023/09/07 10:55:08;;;;;;;3.47;2.80;;;34.60;98.50;;;;;;5031120;28;20244;-66
2023/09/07 10:57:41;;;;;;;5.35;2.72;;;34.60;98.00;;;;;;5030104;28;20178;-66
2023/09/07 11:00:10;;;;;;;7.68;3.05;;;34.30;98.50;;;;;;5030760;28;20693;-66
2023/09/07 11:02:37;;;;;;;6.65;3.38;;;34.10;97.80;;;;;;5030719;28;20186;-67
2023/09/07 11:05:03;;;;;;;5.13;3.08;;;33.60;98.30;;;;;;5029981;28;20562;-67
2023/09/07 11:07:28;;;;;;;5.70;3.55;;;33.10;98.00;;;;;;5030054;28;20666;-66
2023/09/07 11:09:54;;;;;;;5.65;3.05;;;32.90;98.70;;;;;;5030409;28;20208;-67
2023/09/07 11:12:21;;;;;;;5.38;3.00;;;32.90;99.90;;;;;;5030425;28;20169;-66
2023/09/07 11:14:53;;;;;;;4.00;3.15;;;33.10;98.90;;;;;;5030049;28;20203;-67
2023/09/07 11:17:25;;;;;;;5.18;2.60;;;33.30;99.70;;;;;;5029857;28;20182;-67
2023/09/07 11:19:54;;;;;;;5.10;2.80;;;33.30;99.10;;;;;;5030320;28;20184;-67
2023/09/07 11:22:19;;;;;;;4.93;3.03;;;32.90;98.00;;;;;;5030275;28;20168;-67
2023/09/07 11:24:45;;;;;;;10.13;3.67;;;32.40;99.90;;;;;;5028419;28;20279;-67
2023/09/07 11:27:11;;;;;;;4.90;3.20;;;32.40;99.90;;;;;;5029649;28;20188;-66
2023/09/07 11:29:39;;;;;;;5.25;2.97;;;32.90;99.90;;;;;;5030139;28;20203;-66
2023/09/07 11:32:09;;;;;;;7.18;3.10;;;32.80;99.90;;;;;;5030196;28;20193;-66
2023/09/07 11:34:34;;;;;;;4.88;3.10;;;33.00;99.90;;;;;;5030131;28;20195;-66
2023/09/07 11:37:03;;;;;;;6.80;3.25;;;32.50;99.90;;;;;;5029250;28;20433;-67
2023/09/07 11:39:28;;;;;;;5.93;3.13;;;32.30;99.90;;;;;;5029006;28;20191;-67
2023/09/07 11:41:54;;;;;;;4.43;3.03;;;32.20;99.90;;;;;;5029907;28;20534;-68
2023/09/07 11:44:20;;;;;;;7.00;3.33;;;32.50;99.90;;;;;;5030019;28;20192;-66
2023/09/07 11:46:46;;;;;;;13.57;3.92;;;32.70;99.90;;;;;;5029438;28;20230;-68
2023/09/07 11:49:12;;;;;;;6.30;3.05;;;32.90;99.50;;;;;;5029785;28;20202;-67
2023/09/07 11:51:37;;;;;;;4.65;3.22;;;32.70;99.50;;;;;;5030117;28;20172;-68
2023/09/07 11:54:04;;;;;;;6.55;3.15;;;32.60;99.70;;;;;;5029845;28;20202;-67
2023/09/07 11:56:30;;;;;;;5.38;3.08;;;32.60;99.90;;;;;;5029726;28;20557;-69
2023/09/07 11:58:56;;;;;;;7.00;3.40;;;32.60;99.90;;;;;;5029310;28;20210;-68
2023/09/07 12:01:21;;;;;;;4.82;3.30;;;32.70;99.70;;;;;;5029780;28;20230;-67
2023/09/07 12:03:47;;;;;;;4.75;2.83;;;32.70;99.90;;;;;;5029733;28;20188;-68
2023/09/07 12:06:13;;;;;;;4.45;3.05;;;33.00;99.90;;;;;;5029698;28;20196;-68
2023/09/07 12:08:42;;;;;;;8.20;3.10;;;33.00;98.90;;;;;;5029297;28;20665;-68
2023/09/07 12:11:08;;;;;;;7.60;3.25;;;33.00;98.90;;;;;;5029463;28;20540;-67
2023/09/07 12:13:34;;;;;;;3.78;2.78;;;33.10;99.90;;;;;;5017575;28;20192;-67
2023/09/07 12:16:02;;;;;;;7.28;3.45;;;33.20;99.90;;;;;;5022792;28;20242;-67
2023/09/07 12:18:30;;;;;;;7.22;3.13;;;33.30;98.70;;;;;;5028183;28;20287;-67
2023/09/07 12:20:56;;;;;;;7.03;3.22;;;33.50;99.80;;;;;;5028133;28;20315;-67
2023/09/07 12:23:23;;;;;;;4.40;2.85;;;33.60;99.60;;;;;;5027962;28;20659;-67
2023/09/07 12:25:51;;;;;;;6.55;3.10;;;33.50;99.00;;;;;;5030231;28;20236;-69
2023/09/07 12:28:16;;;;;;;5.20;3.08;;;33.30;98.20;;;;;;5032878;28;20180;-68
2023/09/07 12:30:44;;;;;;;4.97;3.20;;;33.20;97.70;;;;;;5032747;28;20500;-69
2023/09/07 12:33:10;;;;;;;6.57;2.97;;;33.30;98.90;;;;;;5020610;28;20185;-68
2023/09/07 12:35:35;;;;;;;8.77;3.40;;;33.50;99.40;;;;;;5032924;28;20204;-67
2023/09/07 12:38:01;;;;;;;5.05;2.75;;;33.60;99.20;;;;;;5030931;28;20552;-67
2023/09/07 12:40:26;;;;;;;4.90;3.67;;;33.30;97.60;;;;;;5033145;28;20581;-67